createdAt,value
2023-04-16T00:00:05.148Z,10.88
2023-04-16T00:01:12.625Z,9.57
2023-04-16T00:02:15.850Z,10.13
2023-04-16T00:03:18.010Z,16.10
2023-04-16T00:04:20.061Z,9.10
2023-04-16T00:05:22.076Z,9.45
2023-04-16T00:06:24.380Z,8.70
2023-04-16T00:07:26.603Z,11.30
2023-04-16T00:08:28.437Z,9.60
2023-04-16T00:09:30.364Z,11.38
2023-04-16T00:10:32.208Z,10.02
2023-04-16T00:11:34.044Z,11.85
2023-04-16T00:12:36.550Z,12.52
2023-04-16T00:13:38.519Z,9.65
2023-04-16T00:14:40.621Z,11.00
2023-04-16T00:15:42.517Z,12.35
2023-04-16T00:16:44.555Z,12.43
2023-04-16T00:17:47.073Z,10.57
2023-04-16T00:18:49.002Z,12.48
2023-04-16T00:19:50.996Z,11.07
2023-04-16T00:20:53.520Z,14.07
2023-04-16T00:21:55.527Z,12.32
2023-04-16T00:22:57.877Z,11.98
2023-04-16T00:23:59.743Z,13.85
2023-04-16T00:25:01.666Z,23.60
2023-04-16T00:26:03.932Z,15.98
2023-04-16T00:27:06.490Z,12.63
2023-04-16T00:28:10.044Z,14.23
2023-04-16T00:29:13.089Z,14.25
2023-04-16T00:30:15.104Z,15.20
2023-04-16T00:31:17.056Z,12.95
2023-04-16T00:32:19.126Z,15.35
2023-04-16T00:33:21.687Z,15.20
2023-04-16T00:34:23.661Z,14.40
2023-04-16T00:35:25.653Z,13.13
2023-04-16T00:36:28.688Z,13.43
2023-04-16T00:37:30.683Z,13.88
2023-04-16T00:38:32.952Z,13.32
2023-04-16T00:39:35.187Z,14.43
2023-04-16T00:40:37.246Z,13.90
2023-04-16T00:41:39.190Z,12.30
2023-04-16T00:42:41.397Z,14.82
2023-04-16T00:43:43.683Z,13.20
2023-04-16T00:44:45.516Z,12.40
2023-04-16T00:45:47.614Z,11.63
2023-04-16T00:46:49.555Z,14.98
2023-04-16T00:47:51.537Z,13.02
2023-04-16T00:48:55.494Z,10.43
2023-04-16T00:49:57.501Z,9.77
2023-04-16T00:51:01.704Z,12.18
2023-04-16T00:52:03.898Z,10.70
2023-04-16T00:53:05.859Z,9.27
2023-04-16T00:54:08.090Z,11.35
2023-04-16T00:55:13.328Z,9.00
2023-04-16T00:56:17.542Z,9.13
2023-04-16T00:57:21.122Z,13.27
2023-04-16T00:58:23.633Z,9.00
2023-04-16T00:59:26.995Z,10.75
2023-04-16T01:00:29.463Z,12.77
2023-04-16T01:01:31.390Z,8.45
2023-04-16T01:02:34.328Z,11.07
2023-04-16T01:03:43.105Z,9.27
2023-04-16T01:04:45.634Z,10.52
2023-04-16T01:05:49.426Z,10.02
2023-04-16T01:06:51.476Z,8.98
2023-04-16T01:07:53.518Z,9.18
2023-04-16T01:08:55.423Z,10.02
2023-04-16T01:09:57.787Z,8.98
2023-04-16T01:10:59.723Z,9.02
2023-04-16T01:12:02.165Z,8.90
2023-04-16T01:13:04.071Z,8.73
2023-04-16T01:14:06.041Z,8.65
2023-04-16T01:15:08.729Z,7.78
2023-04-16T01:16:12.333Z,10.30
2023-04-16T01:17:14.285Z,7.72
2023-04-16T01:18:17.416Z,9.52
2023-04-16T01:19:19.352Z,8.75
2023-04-16T01:20:21.642Z,9.98
2023-04-16T01:21:23.462Z,10.30
2023-04-16T01:22:25.308Z,8.15
2023-04-16T01:23:27.181Z,9.38
2023-04-16T01:24:29.082Z,9.68
2023-04-16T01:25:31.306Z,9.85
2023-04-16T01:26:33.323Z,8.75
2023-04-16T01:27:35.493Z,9.10
2023-04-16T01:28:37.412Z,9.75
2023-04-16T01:29:39.410Z,7.78
2023-04-16T01:30:42.364Z,8.27
2023-04-16T01:31:46.702Z,8.77
2023-04-16T01:32:48.871Z,9.57
2023-04-16T01:33:51.500Z,7.65
2023-04-16T01:34:53.385Z,7.93
2023-04-16T01:35:56.157Z,10.25
2023-04-16T01:36:58.323Z,7.28
2023-04-16T01:38:00.244Z,9.13
2023-04-16T01:39:02.176Z,9.20
2023-04-16T01:40:04.356Z,8.65
2023-04-16T01:41:06.744Z,9.40
2023-04-16T01:42:10.970Z,7.95
2023-04-16T01:43:12.908Z,8.18
2023-04-16T01:44:15.836Z,7.25
2023-04-16T01:45:17.822Z,7.25
2023-04-16T01:46:31.178Z,8.30
2023-04-16T01:47:33.151Z,8.57
2023-04-16T01:48:35.059Z,7.43
2023-04-16T01:49:37.054Z,8.50
2023-04-16T01:50:39.002Z,8.93
2023-04-16T01:51:42.056Z,7.70
2023-04-16T01:52:44.027Z,8.55
2023-04-16T01:53:45.886Z,8.55
2023-04-16T01:54:48.127Z,9.48
2023-04-16T01:55:49.969Z,8.32
2023-04-16T01:56:52.497Z,8.75
2023-04-16T01:57:54.498Z,7.65
2023-04-16T01:58:59.502Z,7.72
2023-04-16T02:00:04.366Z,9.93
2023-04-16T02:01:06.614Z,7.75
2023-04-16T02:02:14.757Z,8.25
2023-04-16T02:03:17.752Z,7.65
2023-04-16T02:04:19.767Z,7.78
2023-04-16T02:05:21.706Z,8.82
2023-04-16T02:06:23.650Z,7.57
2023-04-16T02:07:26.042Z,13.73
2023-04-16T02:08:27.984Z,11.95
2023-04-16T02:09:29.832Z,11.60
2023-04-16T02:10:32.012Z,11.45
2023-04-16T02:11:34.309Z,9.77
2023-04-16T02:12:36.501Z,11.90
2023-04-16T02:13:38.338Z,12.65
2023-04-16T02:14:40.538Z,9.45
2023-04-16T02:15:47.450Z,11.32
2023-04-16T02:16:49.884Z,11.15
2023-04-16T02:17:56.821Z,10.75
2023-04-16T02:18:59.898Z,11.88
2023-04-16T02:20:05.691Z,8.93
2023-04-16T02:21:08.472Z,10.55
2023-04-16T02:22:10.569Z,8.07
2023-04-16T02:23:15.040Z,6.87
2023-04-16T02:24:18.507Z,8.85
2023-04-16T02:25:20.847Z,7.93
2023-04-16T02:26:22.852Z,9.13
2023-04-16T02:27:25.044Z,8.52
2023-04-16T02:28:27.864Z,12.50
2023-04-16T02:29:30.312Z,12.48
2023-04-16T02:30:34.894Z,11.90
2023-04-16T02:31:38.455Z,10.23
2023-04-16T02:32:41.294Z,8.27
2023-04-16T02:33:43.701Z,11.30
2023-04-16T02:34:46.000Z,7.45
2023-04-16T02:35:48.705Z,9.10
2023-04-16T02:36:50.559Z,9.25
2023-04-16T02:37:52.472Z,7.65
2023-04-16T02:38:54.403Z,8.57
2023-04-16T02:39:57.837Z,7.68
2023-04-16T02:40:59.685Z,8.60
2023-04-16T02:42:02.568Z,10.07
2023-04-16T02:43:04.574Z,9.80
2023-04-16T02:44:06.447Z,7.82
2023-04-16T02:45:09.393Z,8.70
2023-04-16T02:46:11.374Z,9.27
2023-04-16T02:47:13.324Z,9.55
2023-04-16T02:48:15.440Z,10.38
2023-04-16T02:49:17.401Z,11.60
2023-04-16T02:50:19.689Z,8.50
2023-04-16T02:51:21.589Z,10.05
2023-04-16T02:52:23.516Z,10.10
2023-04-16T02:53:25.452Z,12.20
2023-04-16T02:54:27.336Z,9.57
2023-04-16T02:55:29.595Z,8.27
2023-04-16T02:56:31.665Z,10.40
2023-04-16T02:57:33.988Z,10.65
2023-04-16T02:58:35.916Z,8.43
2023-04-16T02:59:37.805Z,8.45
2023-04-16T03:00:40.014Z,8.77
2023-04-16T03:01:41.985Z,12.55
2023-04-16T03:02:44.471Z,9.27
2023-04-16T03:03:46.477Z,9.32
2023-04-16T03:04:48.477Z,12.02
2023-04-16T03:05:50.961Z,10.30
2023-04-16T03:06:52.817Z,10.38
2023-04-16T03:07:56.807Z,10.88
2023-04-16T03:08:58.704Z,10.73
2023-04-16T03:10:00.741Z,9.45
2023-04-16T03:11:02.929Z,12.30
2023-04-16T03:12:05.161Z,9.18
2023-04-16T03:13:07.510Z,9.52
2023-04-16T03:14:09.417Z,10.18
2023-04-16T03:15:11.581Z,9.35
2023-04-16T03:16:13.762Z,10.85
2023-04-16T03:17:15.921Z,9.48
2023-04-16T03:18:17.841Z,9.40
2023-04-16T03:19:19.801Z,9.38
2023-04-16T03:20:21.705Z,10.60
2023-04-16T03:21:23.941Z,10.10
2023-04-16T03:22:25.815Z,11.48
2023-04-16T03:23:28.462Z,11.05
2023-04-16T03:24:30.347Z,10.43
2023-04-16T03:25:32.300Z,10.52
2023-04-16T03:26:34.742Z,9.57
2023-04-16T03:27:36.650Z,9.98
2023-04-16T03:28:38.847Z,13.13
2023-04-16T03:29:41.345Z,9.75
2023-04-16T03:30:43.596Z,10.30
2023-04-16T03:31:45.819Z,9.43
2023-04-16T03:32:47.907Z,11.38
2023-04-16T03:33:50.755Z,10.88
2023-04-16T03:34:53.055Z,9.63
2023-04-16T03:35:58.714Z,9.35
2023-04-16T03:37:01.527Z,10.52
2023-04-16T03:38:03.550Z,9.40
2023-04-16T03:39:05.626Z,9.82
2023-04-16T03:40:08.338Z,11.02
2023-04-16T03:41:10.232Z,9.50
2023-04-16T03:42:12.407Z,9.95
2023-04-16T03:43:14.280Z,11.68
2023-04-16T03:44:16.291Z,11.32
2023-04-16T03:45:18.610Z,9.70
2023-04-16T03:46:21.154Z,10.52
2023-04-16T03:47:23.786Z,11.05
2023-04-16T03:48:26.769Z,10.90
2023-04-16T03:49:28.862Z,9.50
2023-04-16T03:50:31.962Z,9.60
2023-04-16T03:51:34.512Z,12.13
2023-04-16T03:52:36.726Z,11.12
2023-04-16T03:53:38.636Z,11.93
2023-04-16T03:54:40.517Z,9.98
2023-04-16T03:55:43.308Z,14.07
2023-04-16T03:56:45.568Z,10.38
2023-04-16T03:57:47.783Z,11.73
2023-04-16T03:58:50.295Z,12.93
2023-04-16T03:59:53.717Z,10.70
2023-04-16T04:00:56.268Z,10.90
2023-04-16T04:01:59.068Z,13.48
2023-04-16T04:03:01.330Z,12.07
2023-04-16T04:04:03.681Z,13.10
2023-04-16T04:05:06.219Z,12.77
2023-04-16T04:06:08.917Z,13.38
2023-04-16T04:07:11.202Z,16.10
2023-04-16T04:08:13.167Z,13.10
2023-04-16T04:09:16.396Z,12.65
2023-04-16T04:10:18.344Z,14.10
2023-04-16T04:11:20.320Z,13.95
2023-04-16T04:12:22.479Z,14.35
2023-04-16T04:13:24.384Z,15.32
2023-04-16T04:14:26.625Z,15.80
2023-04-16T04:15:28.432Z,14.82
2023-04-16T04:16:31.592Z,15.20
2023-04-16T04:17:34.204Z,15.80
2023-04-16T04:18:37.009Z,15.30
2023-04-16T04:19:47.101Z,15.27
2023-04-16T04:20:57.186Z,15.25
2023-04-16T04:21:59.344Z,14.18
2023-04-16T04:23:01.531Z,15.75
2023-04-16T04:24:03.686Z,17.08
2023-04-16T04:25:10.157Z,16.60
2023-04-16T04:26:12.136Z,15.95
2023-04-16T04:27:14.558Z,13.60
2023-04-16T04:28:17.111Z,15.38
2023-04-16T04:29:19.015Z,14.13
2023-04-16T04:30:21.152Z,14.90
2023-04-16T04:31:23.110Z,14.02
2023-04-16T04:32:25.052Z,13.93
2023-04-16T04:33:27.775Z,15.05
2023-04-16T04:34:29.768Z,13.68
2023-04-16T04:35:32.618Z,12.35
2023-04-16T04:36:34.963Z,12.95
2023-04-16T04:37:36.950Z,11.95
2023-04-16T04:38:40.609Z,14.05
2023-04-16T04:39:42.555Z,13.60
2023-04-16T04:40:44.569Z,11.68
2023-04-16T04:41:46.521Z,11.80
2023-04-16T04:42:48.490Z,11.20
2023-04-16T04:43:50.826Z,15.90
2023-04-16T04:44:52.904Z,11.60
2023-04-16T04:45:56.259Z,11.20
2023-04-16T04:46:58.145Z,12.57
2023-04-16T04:48:00.136Z,19.85
2023-04-16T04:49:02.441Z,14.18
2023-04-16T04:50:04.554Z,13.23
2023-04-16T04:51:07.163Z,11.12
2023-04-16T04:52:09.224Z,10.48
2023-04-16T04:53:11.205Z,12.45
2023-04-16T04:54:13.462Z,11.40
2023-04-16T04:55:18.062Z,10.43
2023-04-16T04:56:19.907Z,10.93
2023-04-16T04:57:21.779Z,10.77
2023-04-16T04:58:26.212Z,12.43
2023-04-16T04:59:28.715Z,12.00
2023-04-16T05:00:31.708Z,13.40
2023-04-16T05:01:34.100Z,11.10
2023-04-16T05:02:36.419Z,14.85
2023-04-16T05:03:38.524Z,12.27
2023-04-16T05:04:40.983Z,10.57
2023-04-16T05:05:42.891Z,11.70
2023-04-16T05:06:44.735Z,9.27
2023-04-16T05:07:46.581Z,12.40
2023-04-16T05:08:48.424Z,14.73
2023-04-16T05:09:50.838Z,11.12
2023-04-16T05:10:52.835Z,13.60
2023-04-16T05:11:54.795Z,12.48
2023-04-16T05:12:57.153Z,12.35
2023-04-16T05:13:59.032Z,11.57
2023-04-16T05:15:01.279Z,12.32
2023-04-16T05:16:03.232Z,12.45
2023-04-16T05:17:05.362Z,12.25
2023-04-16T05:18:07.321Z,11.80
2023-04-16T05:19:09.424Z,12.48
2023-04-16T05:20:12.302Z,11.00
2023-04-16T05:21:19.612Z,11.98
2023-04-16T05:22:28.430Z,11.52
2023-04-16T05:23:30.925Z,12.50
2023-04-16T05:24:36.199Z,12.37
2023-04-16T05:25:38.646Z,12.07
2023-04-16T05:26:40.574Z,11.95
2023-04-16T05:27:42.421Z,14.77
2023-04-16T05:28:44.296Z,11.52
2023-04-16T05:29:46.322Z,13.50
2023-04-16T05:30:48.720Z,12.70
2023-04-16T05:31:50.905Z,11.07
2023-04-16T05:32:53.203Z,10.90
2023-04-16T05:33:55.148Z,12.77
2023-04-16T05:35:00.150Z,12.10
2023-04-16T05:36:02.402Z,13.82
2023-04-16T05:37:04.259Z,12.73
2023-04-16T05:38:06.597Z,13.23
2023-04-16T05:39:08.984Z,12.93
2023-04-16T05:40:13.562Z,12.25
2023-04-16T05:41:15.951Z,16.40
2023-04-16T05:42:18.004Z,12.68
2023-04-16T05:43:20.058Z,12.63
2023-04-16T05:44:21.956Z,12.77
2023-04-16T05:45:24.490Z,13.65
2023-04-16T05:46:27.897Z,10.75
2023-04-16T05:47:30.048Z,12.80
2023-04-16T05:48:32.027Z,12.30
2023-04-16T05:49:33.963Z,13.50
2023-04-16T05:50:36.692Z,15.23
2023-04-16T05:51:38.831Z,16.35
2023-04-16T05:52:40.807Z,14.55
2023-04-16T05:53:42.828Z,14.32
2023-04-16T05:54:44.774Z,14.95
2023-04-16T05:55:47.139Z,11.68
2023-04-16T05:56:49.327Z,11.12
2023-04-16T05:57:51.182Z,11.82
2023-04-16T05:58:53.064Z,14.70
2023-04-16T05:59:54.940Z,11.90
2023-04-16T06:00:57.039Z,12.13
2023-04-16T06:01:59.333Z,10.35
2023-04-16T06:03:03.087Z,9.60
2023-04-16T06:04:05.436Z,10.48
2023-04-16T06:05:07.732Z,11.77
2023-04-16T06:06:09.688Z,12.82
2023-04-16T06:07:11.930Z,11.40
2023-04-16T06:08:13.794Z,10.27
2023-04-16T06:09:15.720Z,10.27
2023-04-16T06:10:17.684Z,11.95
2023-04-16T06:11:19.578Z,10.50
2023-04-16T06:12:21.779Z,9.88
2023-04-16T06:13:23.712Z,9.63
2023-04-16T06:14:25.760Z,10.55
2023-04-16T06:15:27.602Z,10.77
2023-04-16T06:16:29.637Z,16.05
2023-04-16T06:17:32.089Z,9.93
2023-04-16T06:18:34.093Z,10.38
2023-04-16T06:19:36.288Z,10.88
2023-04-16T06:20:38.202Z,9.90
2023-04-16T06:21:40.261Z,10.55
2023-04-16T06:22:42.467Z,10.50
2023-04-16T06:23:44.318Z,8.90
2023-04-16T06:24:46.192Z,8.93
2023-04-16T06:25:48.086Z,11.32
2023-04-16T06:26:49.990Z,13.90
2023-04-16T06:27:52.150Z,10.45
2023-04-16T06:28:54.018Z,10.60
2023-04-16T06:29:57.440Z,9.18
2023-04-16T06:31:00.564Z,8.80
2023-04-16T06:32:03.711Z,9.95
2023-04-16T06:33:05.982Z,8.00
2023-04-16T06:34:08.338Z,8.48
2023-04-16T06:35:10.226Z,7.25
2023-04-16T06:36:12.370Z,7.10
2023-04-16T06:37:14.260Z,7.53
2023-04-16T06:38:16.583Z,6.43
2023-04-16T06:39:21.715Z,5.60
2023-04-16T06:40:23.721Z,6.18
2023-04-16T06:41:26.708Z,7.60
2023-04-16T06:42:28.705Z,7.95
2023-04-16T06:43:33.486Z,8.20
2023-04-16T06:44:35.885Z,7.10
2023-04-16T06:45:37.853Z,6.85
2023-04-16T06:46:39.882Z,7.22
2023-04-16T06:47:41.838Z,5.90
2023-04-16T06:48:44.138Z,5.80
2023-04-16T06:49:45.990Z,7.10
2023-04-16T06:50:47.874Z,7.30
2023-04-16T06:51:49.989Z,5.68
2023-04-16T06:52:52.196Z,7.32
2023-04-16T06:53:54.349Z,5.05
2023-04-16T06:54:56.778Z,9.07
2023-04-16T06:55:58.644Z,5.93
2023-04-16T06:57:00.526Z,7.22
2023-04-16T06:58:02.380Z,5.30
2023-04-16T06:59:04.797Z,6.50
2023-04-16T07:00:07.242Z,6.95
2023-04-16T07:01:10.129Z,5.55
2023-04-16T07:02:12.463Z,5.50
2023-04-16T07:03:14.805Z,5.70
2023-04-16T07:04:17.183Z,6.70
2023-04-16T07:05:19.270Z,6.87
2023-04-16T07:06:21.181Z,6.30
2023-04-16T07:07:23.063Z,9.32
2023-04-16T07:08:24.973Z,6.70
2023-04-16T07:09:27.302Z,6.15
2023-04-16T07:10:29.248Z,7.50
2023-04-16T07:11:31.318Z,6.00
2023-04-16T07:12:33.462Z,4.90
2023-04-16T07:13:35.299Z,6.25
2023-04-16T07:14:37.560Z,5.65
2023-04-16T07:15:39.459Z,5.35
2023-04-16T07:16:41.622Z,5.80
2023-04-16T07:17:43.545Z,5.25
2023-04-16T07:18:45.583Z,8.57
2023-04-16T07:19:47.852Z,6.15
2023-04-16T07:20:49.749Z,8.63
2023-04-16T07:21:51.801Z,4.62
2023-04-16T07:22:53.720Z,6.93
2023-04-16T07:23:55.669Z,4.97
2023-04-16T07:24:57.796Z,7.22
2023-04-16T07:25:59.669Z,5.05
2023-04-16T07:27:01.654Z,6.87
2023-04-16T07:28:03.947Z,9.13
2023-04-16T07:29:05.964Z,6.65
2023-04-16T07:30:09.266Z,7.12
2023-04-16T07:31:11.218Z,7.12
2023-04-16T07:32:14.767Z,6.80
2023-04-16T07:33:17.503Z,4.25
2023-04-16T07:34:19.406Z,9.60
2023-04-16T07:35:21.663Z,6.60
2023-04-16T07:36:23.633Z,5.60
2023-04-16T07:37:25.530Z,5.40
2023-04-16T07:38:27.379Z,6.40
2023-04-16T07:39:29.209Z,4.70
2023-04-16T07:40:31.447Z,6.68
2023-04-16T07:41:33.459Z,5.70
2023-04-16T07:42:35.706Z,5.07
2023-04-16T07:43:37.616Z,5.90
2023-04-16T07:44:39.528Z,5.20
2023-04-16T07:45:41.777Z,4.47
2023-04-16T07:46:47.285Z,7.10
2023-04-16T07:47:49.663Z,3.87
2023-04-16T07:48:51.580Z,4.93
2023-04-16T07:49:53.819Z,5.43
2023-04-16T07:50:56.452Z,4.60
2023-04-16T07:51:58.333Z,6.78
2023-04-16T07:53:00.295Z,7.87
2023-04-16T07:54:02.252Z,6.62
2023-04-16T07:55:04.768Z,5.45
2023-04-16T07:56:07.416Z,5.80
2023-04-16T07:57:09.272Z,4.93
2023-04-16T07:58:11.256Z,8.73
2023-04-16T07:59:22.148Z,4.53
2023-04-16T08:00:26.411Z,3.58
2023-04-16T08:01:28.781Z,4.32
2023-04-16T08:02:31.274Z,6.72
2023-04-16T08:03:33.455Z,5.30
2023-04-16T08:04:35.829Z,4.55
2023-04-16T08:05:37.889Z,5.37
2023-04-16T08:06:40.481Z,5.78
2023-04-16T08:07:42.490Z,4.22
2023-04-16T08:08:44.308Z,5.45
2023-04-16T08:09:51.691Z,4.30
2023-04-16T08:10:55.951Z,5.93
2023-04-16T08:11:58.194Z,4.40
2023-04-16T08:13:03.210Z,7.28
2023-04-16T08:14:05.258Z,6.55
2023-04-16T08:15:08.076Z,9.75
2023-04-16T08:16:10.136Z,9.18
2023-04-16T08:17:15.902Z,7.85
2023-04-16T08:18:17.817Z,4.70
2023-04-16T08:19:20.056Z,14.52
2023-04-16T08:20:21.898Z,5.65
2023-04-16T08:21:23.795Z,5.35
2023-04-16T08:22:26.445Z,5.18
2023-04-16T08:23:28.402Z,6.43
2023-04-16T08:24:30.506Z,4.25
2023-04-16T08:25:32.467Z,7.12
2023-04-16T08:26:34.438Z,5.80
2023-04-16T08:27:36.666Z,4.57
2023-04-16T08:28:38.541Z,6.60
2023-04-16T08:29:40.528Z,7.78
2023-04-16T08:30:42.523Z,5.40
2023-04-16T08:31:44.553Z,4.03
2023-04-16T08:32:49.398Z,5.22
2023-04-16T08:33:52.011Z,6.62
2023-04-16T08:34:53.925Z,5.10
2023-04-16T08:35:55.873Z,4.32
2023-04-16T08:36:58.298Z,11.38
2023-04-16T08:38:02.384Z,4.32
2023-04-16T08:39:04.933Z,8.23
2023-04-16T08:40:07.864Z,5.97
2023-04-16T08:41:12.987Z,6.18
2023-04-16T08:42:31.470Z,7.80
2023-04-16T08:43:37.685Z,4.57
2023-04-16T08:44:44.176Z,3.83
2023-04-16T08:45:47.801Z,4.32
2023-04-16T08:46:54.799Z,5.20
2023-04-16T08:47:57.225Z,5.12
2023-04-16T08:49:01.085Z,6.70
2023-04-16T08:50:06.583Z,3.35
2023-04-16T08:51:10.706Z,3.70
2023-04-16T08:52:20.225Z,3.45
2023-04-16T08:53:29.116Z,4.18
2023-04-16T08:54:37.472Z,5.43
2023-04-16T08:55:43.626Z,2.92
2023-04-16T08:56:45.944Z,3.28
2023-04-16T08:57:58.258Z,4.97
2023-04-16T08:59:03.136Z,7.15
2023-04-16T09:00:07.862Z,3.67
2023-04-16T09:01:11.365Z,6.43
2023-04-16T09:02:13.739Z,2.95
2023-04-16T09:03:15.810Z,4.05
2023-04-16T09:04:19.226Z,2.83
2023-04-16T09:05:25.605Z,5.00
2023-04-16T09:06:28.287Z,5.80
2023-04-16T09:07:32.295Z,3.28
2023-04-16T09:08:36.092Z,3.08
2023-04-16T09:09:39.518Z,3.45
2023-04-16T09:10:43.107Z,2.80
2023-04-16T09:11:45.593Z,3.25
2023-04-16T09:12:47.525Z,3.53
2023-04-16T09:13:49.484Z,2.17
2023-04-16T09:14:51.905Z,5.28
2023-04-16T09:15:55.297Z,8.55
2023-04-16T09:17:01.145Z,10.57
2023-04-16T09:18:03.302Z,3.80
2023-04-16T09:19:05.382Z,12.35
2023-04-16T09:20:09.286Z,19.10
2023-04-16T09:21:11.490Z,8.07
2023-04-16T09:22:13.596Z,5.78
2023-04-16T09:23:15.603Z,5.22
2023-04-16T09:24:18.045Z,6.53
2023-04-16T09:25:22.654Z,4.82
2023-04-16T09:26:25.106Z,3.70
2023-04-16T09:27:27.492Z,4.12
2023-04-16T09:28:42.931Z,5.22
2023-04-16T09:29:44.819Z,4.28
2023-04-16T09:30:46.690Z,3.65
2023-04-16T09:32:05.487Z,3.15
2023-04-16T09:33:22.232Z,3.87
2023-04-16T09:34:24.390Z,4.45
2023-04-16T09:35:26.462Z,5.22
2023-04-16T09:36:28.688Z,2.70
2023-04-16T09:37:31.273Z,3.75
2023-04-16T09:38:48.963Z,3.45
2023-04-16T09:40:04.624Z,5.85
2023-04-16T09:41:08.313Z,2.50
2023-04-16T09:42:11.254Z,3.17
2023-04-16T09:43:18.393Z,2.85
2023-04-16T09:44:20.481Z,4.43
2023-04-16T09:45:22.328Z,3.12
2023-04-16T09:46:30.133Z,2.78
2023-04-16T09:47:46.220Z,4.15
2023-04-16T09:48:48.661Z,5.15
2023-04-16T09:49:50.920Z,3.33
2023-04-16T09:50:52.847Z,12.80
2023-04-16T09:51:56.280Z,7.28
2023-04-16T09:53:03.638Z,2.83
2023-04-16T09:54:06.714Z,3.92
2023-04-16T09:55:08.680Z,2.42
2023-04-16T09:56:12.463Z,5.05
2023-04-16T09:57:16.300Z,2.92
2023-04-16T09:58:21.188Z,3.37
2023-04-16T09:59:24.336Z,4.68
2023-04-16T10:00:26.702Z,1.50
2023-04-16T10:01:30.945Z,2.25
2023-04-16T10:02:38.898Z,2.50
2023-04-16T10:03:41.242Z,3.78
2023-04-16T10:04:51.667Z,1.67
2023-04-16T10:05:53.919Z,4.62
2023-04-16T10:07:06.256Z,5.28
2023-04-16T10:08:13.319Z,4.90
2023-04-16T10:09:15.199Z,4.37
2023-04-16T10:10:17.340Z,3.97
2023-04-16T10:11:21.030Z,6.43
2023-04-16T10:12:23.396Z,8.07
2023-04-16T10:13:27.938Z,11.95
2023-04-16T10:14:29.950Z,7.20
2023-04-16T10:15:31.991Z,4.43
2023-04-16T10:16:34.669Z,3.85
2023-04-16T10:17:37.497Z,3.05
2023-04-16T10:18:41.635Z,4.95
2023-04-16T10:19:44.397Z,7.07
2023-04-16T10:20:46.474Z,4.18
2023-04-16T10:21:48.707Z,3.53
2023-04-16T10:22:51.092Z,2.90
2023-04-16T10:23:53.338Z,2.50
2023-04-16T10:24:56.229Z,3.33
2023-04-16T10:25:59.217Z,5.60
2023-04-16T10:27:01.614Z,3.80
2023-04-16T10:28:04.124Z,3.10
2023-04-16T10:29:07.337Z,3.17
2023-04-16T10:30:10.833Z,3.00
2023-04-16T10:31:13.327Z,4.22
2023-04-16T10:32:17.357Z,4.15
2023-04-16T10:33:21.921Z,5.10
2023-04-16T10:34:25.006Z,3.20
2023-04-16T10:35:26.952Z,2.75
2023-04-16T10:36:29.142Z,3.87
2023-04-16T10:37:32.134Z,3.55
2023-04-16T10:38:35.275Z,2.35
2023-04-16T10:39:37.600Z,5.72
2023-04-16T10:40:39.671Z,4.93
2023-04-16T10:41:42.837Z,4.57
2023-04-16T10:42:57.684Z,6.10
2023-04-16T10:44:10.561Z,6.28
2023-04-16T10:45:12.458Z,3.75
2023-04-16T10:46:37.780Z,3.92
2023-04-16T10:47:40.737Z,2.22
2023-04-16T10:48:49.657Z,3.28
2023-04-16T10:49:52.707Z,2.83
2023-04-16T10:50:58.200Z,3.15
2023-04-16T10:52:20.173Z,2.65
2023-04-16T10:53:28.164Z,4.62
2023-04-16T10:54:31.187Z,3.35
2023-04-16T10:55:33.834Z,2.60
2023-04-16T10:56:37.098Z,2.45
2023-04-16T10:57:38.952Z,5.10
2023-04-16T10:58:41.352Z,4.30
2023-04-16T10:59:44.781Z,3.85
2023-04-16T11:00:51.208Z,4.15
2023-04-16T11:01:55.865Z,3.80
2023-04-16T11:02:57.951Z,3.17
2023-04-16T11:04:19.057Z,10.35
2023-04-16T11:05:24.580Z,2.80
2023-04-16T11:06:27.947Z,3.25
2023-04-16T11:07:34.742Z,3.92
2023-04-16T11:08:53.388Z,3.22
2023-04-16T11:10:13.457Z,3.58
2023-04-16T11:11:15.677Z,2.10
2023-04-16T11:12:20.260Z,4.60
2023-04-16T11:13:22.575Z,3.62
2023-04-16T11:14:24.447Z,2.78
2023-04-16T11:15:30.907Z,2.42
2023-04-16T11:16:32.932Z,3.60
2023-04-16T11:17:46.532Z,2.42
2023-04-16T11:18:51.450Z,2.55
2023-04-16T11:19:53.869Z,4.03
2023-04-16T11:20:56.222Z,4.78
2023-04-16T11:21:58.574Z,3.95
2023-04-16T11:23:00.833Z,2.30
2023-04-16T11:24:02.670Z,1.65
2023-04-16T11:25:04.888Z,2.37
2023-04-16T11:26:30.610Z,1.70
2023-04-16T11:27:32.498Z,1.30
2023-04-16T11:28:35.876Z,3.83
2023-04-16T11:29:37.752Z,3.97
2023-04-16T11:30:40.755Z,1.55
2023-04-16T11:31:42.995Z,1.70
2023-04-16T11:32:45.794Z,3.50
2023-04-16T11:33:48.091Z,1.83
2023-04-16T11:34:50.059Z,5.68
2023-04-16T11:35:59.020Z,2.12
2023-04-16T11:37:01.016Z,2.35
2023-04-16T11:38:02.972Z,5.37
2023-04-16T11:39:05.387Z,7.43
2023-04-16T11:40:09.609Z,2.12
2023-04-16T11:41:11.734Z,6.50
2023-04-16T11:42:22.956Z,3.75
2023-04-16T11:43:26.824Z,6.00
2023-04-16T11:44:29.711Z,5.47
2023-04-16T11:45:31.825Z,1.35
2023-04-16T11:46:40.758Z,1.27
2023-04-16T11:47:45.883Z,2.53
2023-04-16T11:48:52.715Z,1.98
2023-04-16T11:49:54.842Z,3.58
2023-04-16T11:50:59.625Z,4.47
2023-04-16T11:52:01.593Z,3.50
2023-04-16T11:53:05.002Z,2.67
2023-04-16T11:54:12.111Z,1.52
2023-04-16T11:55:14.610Z,2.12
2023-04-16T11:56:25.520Z,2.80
2023-04-16T11:57:28.957Z,3.83
2023-04-16T11:58:31.054Z,2.90
2023-04-16T11:59:33.420Z,1.95
2023-04-16T12:00:35.983Z,4.97
2023-04-16T12:01:41.165Z,3.40
2023-04-16T12:02:46.031Z,1.90
2023-04-16T12:03:49.736Z,3.10
2023-04-16T12:04:51.888Z,3.90
2023-04-16T12:05:54.059Z,4.50
2023-04-16T12:07:13.609Z,2.00
2023-04-16T12:08:32.628Z,1.20
2023-04-16T12:09:38.568Z,2.00
2023-04-16T12:10:55.507Z,1.90
2023-04-16T12:11:57.945Z,2.00
2023-04-16T12:13:16.372Z,2.08
2023-04-16T12:14:18.352Z,2.50
2023-04-16T12:15:20.355Z,1.15
2023-04-16T12:16:22.242Z,0.80
2023-04-16T12:17:24.516Z,1.60
2023-04-16T12:18:29.390Z,1.90
2023-04-16T12:19:31.546Z,2.28
2023-04-16T12:20:41.846Z,2.45
2023-04-16T12:21:44.738Z,1.62
2023-04-16T12:22:49.733Z,1.98
2023-04-16T12:23:53.907Z,1.55
2023-04-16T12:24:59.960Z,1.05
2023-04-16T12:26:10.792Z,3.53
2023-04-16T12:27:13.033Z,1.20
2023-04-16T12:28:16.521Z,2.42
2023-04-16T12:29:19.670Z,1.65
2023-04-16T12:30:23.445Z,3.85
2023-04-16T12:31:38.232Z,1.20
2023-04-16T12:32:41.891Z,1.70
2023-04-16T12:33:44.101Z,2.85
2023-04-16T12:34:52.301Z,1.80
2023-04-16T12:35:54.826Z,2.97
2023-04-16T12:37:12.358Z,1.60
2023-04-16T12:38:17.296Z,1.70
2023-04-16T12:39:19.594Z,2.95
2023-04-16T12:40:21.411Z,1.98
2023-04-16T12:41:23.675Z,2.20
2023-04-16T12:42:25.947Z,2.90
2023-04-16T12:43:28.498Z,2.10
2023-04-16T12:44:30.746Z,1.58
2023-04-16T12:45:32.644Z,3.65
2023-04-16T12:46:41.050Z,5.10
2023-04-16T12:47:43.127Z,1.45
2023-04-16T12:48:45.038Z,1.40
2023-04-16T12:49:47.220Z,2.65
2023-04-16T12:50:49.104Z,3.92
2023-04-16T12:51:51.017Z,3.87
2023-04-16T12:52:52.883Z,5.75
2023-04-16T12:53:55.281Z,3.40
2023-04-16T12:54:57.535Z,1.10
2023-04-16T12:55:59.586Z,4.32
2023-04-16T12:57:01.458Z,1.83
2023-04-16T12:58:03.371Z,1.73
2023-04-16T12:59:05.235Z,1.55
2023-04-16T13:00:11.064Z,2.25
2023-04-16T13:01:12.965Z,1.62
2023-04-16T13:02:15.018Z,0.90
2023-04-16T13:03:17.050Z,1.40
2023-04-16T13:04:19.200Z,1.08
2023-04-16T13:05:21.472Z,2.15
2023-04-16T13:06:23.435Z,3.62
2023-04-16T13:07:26.728Z,3.17
2023-04-16T13:08:29.136Z,1.15
2023-04-16T13:09:31.109Z,2.37
2023-04-16T13:10:33.417Z,1.35
2023-04-16T13:11:35.640Z,1.30
2023-04-16T13:12:37.638Z,3.40
2023-04-16T13:13:39.794Z,1.33
2023-04-16T13:14:43.349Z,1.42
2023-04-16T13:15:47.212Z,2.00
2023-04-16T13:16:49.089Z,2.75
2023-04-16T13:17:51.073Z,2.47
2023-04-16T13:18:52.983Z,2.87
2023-04-16T13:19:54.936Z,1.80
2023-04-16T13:20:57.350Z,1.20
2023-04-16T13:21:59.533Z,2.75
2023-04-16T13:23:01.417Z,3.37
2023-04-16T13:24:03.530Z,1.40
2023-04-16T13:25:05.960Z,1.60
2023-04-16T13:26:08.182Z,3.25
2023-04-16T13:27:10.149Z,1.77
2023-04-16T13:28:12.045Z,3.92
2023-04-16T13:29:13.917Z,2.22
2023-04-16T13:30:16.308Z,2.55
2023-04-16T13:31:20.606Z,1.95
2023-04-16T13:32:22.597Z,4.00
2023-04-16T13:33:24.629Z,4.55
2023-04-16T13:34:26.502Z,1.92
2023-04-16T13:35:29.453Z,2.35
2023-04-16T13:36:33.051Z,2.72
2023-04-16T13:37:34.936Z,3.78
2023-04-16T13:38:36.885Z,2.15
2023-04-16T13:39:38.800Z,3.15
2023-04-16T13:40:40.953Z,1.87
2023-04-16T13:41:43.574Z,3.37
2023-04-16T13:42:45.550Z,2.60
2023-04-16T13:43:47.397Z,3.28
2023-04-16T13:44:53.067Z,2.62
2023-04-16T13:45:54.971Z,2.53
2023-04-16T13:46:57.307Z,3.17
2023-04-16T13:47:59.955Z,1.60
2023-04-16T13:49:01.938Z,1.62
2023-04-16T13:50:03.999Z,3.55
2023-04-16T13:51:06.106Z,1.40
2023-04-16T13:52:08.320Z,2.42